sensor_id;sensor_type;location;lat;lon;timestamp;pressure;altitude;pressure_sealevel;temperature
40045;BMP280;25735;48.122;11.422;2022-12-07T00:01:16;95183.38;;;3.26
40045;BMP280;25735;48.122;11.422;2022-12-07T00:03:44;95185.44;;;3.35
40045;BMP280;25735;48.122;11.422;2022-12-07T00:06:12;95179.00;;;3.44
40045;BMP280;25735;48.122;11.422;2022-12-07T00:08:38;95181.88;;;3.25
40045;BMP280;25735;48.122;11.422;2022-12-07T00:11:05;95175.75;;;3.25
40045;BMP280;25735;48.122;11.422;2022-12-07T00:13:31;95174.88;;;3.28
40045;BMP280;25735;48.122;11.422;2022-12-07T00:16:16;95169.44;;;3.31
40045;BMP280;25735;48.122;11.422;2022-12-07T00:18:42;95162.22;;;3.28
40045;BMP280;25735;48.122;11.422;2022-12-07T00:21:12;95168.47;;;3.25
40045;BMP280;25735;48.122;11.422;2022-12-07T00:23:39;95164.44;;;3.17
40045;BMP280;25735;48.122;11.422;2022-12-07T00:26:15;95160.41;;;3.25
40045;BMP280;25735;48.122;11.422;2022-12-07T00:28:41;95160.59;;;3.31
40045;BMP280;25735;48.122;11.422;2022-12-07T00:31:09;95160.28;;;3.29
40045;BMP280;25735;48.122;11.422;2022-12-07T00:33:35;95162.31;;;3.37
40045;BMP280;25735;48.122;11.422;2022-12-07T00:36:01;95159.97;;;3.27
40045;BMP280;25735;48.122;11.422;2022-12-07T00:38:29;95161.91;;;3.26
40045;BMP280;25735;48.122;11.422;2022-12-07T00:40:59;95162.53;;;3.30
40045;BMP280;25735;48.122;11.422;2022-12-07T00:43:25;95156.94;;;3.12
40045;BMP280;25735;48.122;11.422;2022-12-07T00:45:51;95162.84;;;3.20
40045;BMP280;25735;48.122;11.422;2022-12-07T00:48:16;95166.94;;;3.24
40045;BMP280;25735;48.122;11.422;2022-12-07T00:50:41;95167.25;;;3.26
40045;BMP280;25735;48.122;11.422;2022-12-07T00:53:07;95156.09;;;3.15
40045;BMP280;25735;48.122;11.422;2022-12-07T00:55:33;95158.78;;;3.28
40045;BMP280;25735;48.122;11.422;2022-12-07T00:57:58;95164.25;;;3.24
40045;BMP280;25735;48.122;11.422;2022-12-07T01:00:23;95169.31;;;3.22
40045;BMP280;25735;48.122;11.422;2022-12-07T01:02:49;95159.22;;;3.26
40045;BMP280;25735;48.122;11.422;2022-12-07T01:05:14;95165.44;;;3.23
40045;BMP280;25735;48.122;11.422;2022-12-07T01:07:39;95170.56;;;3.06
40045;BMP280;25735;48.122;11.422;2022-12-07T01:10:05;95161.66;;;3.21
40045;BMP280;25735;48.122;11.422;2022-12-07T01:12:31;95163.41;;;3.27
40045;BMP280;25735;48.122;11.422;2022-12-07T01:14:56;95154.34;;;3.21
40045;BMP280;25735;48.122;11.422;2022-12-07T01:17:21;95161.47;;;3.15
40045;BMP280;25735;48.122;11.422;2022-12-07T01:19:46;95157.78;;;3.09
40045;BMP280;25735;48.122;11.422;2022-12-07T01:22:12;95161.47;;;3.15
40045;BMP280;25735;48.122;11.422;2022-12-07T01:24:37;95157.47;;;3.20
40045;BMP280;25735;48.122;11.422;2022-12-07T01:27:02;95171.53;;;3.11
40045;BMP280;25735;48.122;11.422;2022-12-07T01:29:27;95163.06;;;3.13
40045;BMP280;25735;48.122;11.422;2022-12-07T01:31:53;95160.78;;;3.11
40045;BMP280;25735;48.122;11.422;2022-12-07T01:34:18;95166.94;;;3.24
40045;BMP280;25735;48.122;11.422;2022-12-07T01:36:43;95166.50;;;3.26
40045;BMP280;25735;48.122;11.422;2022-12-07T01:39:09;95163.72;;;3.29
40045;BMP280;25735;48.122;11.422;2022-12-07T01:41:38;95156.31;;;3.33
40045;BMP280;25735;48.122;11.422;2022-12-07T01:44:13;95166.94;;;3.36
40045;BMP280;25735;48.122;11.422;2022-12-07T01:46:39;95170.94;;;3.32
40045;BMP280;25735;48.122;11.422;2022-12-07T01:49:06;95169.31;;;3.35
40045;BMP280;25735;48.122;11.422;2022-12-07T01:51:34;95168.75;;;3.27
40045;BMP280;25735;48.122;11.422;2022-12-07T01:54:00;95152.88;;;3.20
40045;BMP280;25735;48.122;11.422;2022-12-07T01:56:27;95157.94;;;3.18
40045;BMP280;25735;48.122;11.422;2022-12-07T01:58:55;95161.47;;;3.15
40045;BMP280;25735;48.122;11.422;2022-12-07T02:01:21;95149.44;;;3.20
40045;BMP280;25735;48.122;11.422;2022-12-07T02:03:47;95160.41;;;3.25
40045;BMP280;25735;48.122;11.422;2022-12-07T02:06:17;95158.03;;;3.27
40045;BMP280;25735;48.122;11.422;2022-12-07T02:08:43;95148.25;;;3.21
40045;BMP280;25735;48.122;11.422;2022-12-07T02:11:09;95155.34;;;3.15
40045;BMP280;25735;48.122;11.422;2022-12-07T02:13:37;95154.91;;;3.16
40045;BMP280;25735;48.122;11.422;2022-12-07T02:21:12;95145.88;;;3.10
40045;BMP280;25735;48.122;11.422;2022-12-07T02:23:51;95152.53;;;3.06
40045;BMP280;25735;48.122;11.422;2022-12-07T02:26:32;95144.25;;;3.01
40045;BMP280;25735;48.122;11.422;2022-12-07T02:31:52;95139.22;;;3.03
40045;BMP280;25735;48.122;11.422;2022-12-07T02:34:24;95141.78;;;3.06
40045;BMP280;25735;48.122;11.422;2022-12-07T02:36:55;95133.44;;;3.16
40045;BMP280;25735;48.122;11.422;2022-12-07T02:39:33;95137.41;;;3.12
40045;BMP280;25735;48.122;11.422;2022-12-07T02:42:09;95139.31;;;2.99
40045;BMP280;25735;48.122;11.422;2022-12-07T02:44:37;95140.91;;;2.97
40045;BMP280;25735;48.122;11.422;2022-12-07T02:47:06;95140.38;;;3.02
40045;BMP280;25735;48.122;11.422;2022-12-07T02:49:32;95134.16;;;3.05
40045;BMP280;25735;48.122;11.422;2022-12-07T02:51:57;95129.53;;;3.05
40045;BMP280;25735;48.122;11.422;2022-12-07T02:54:23;95137.28;;;3.03
40045;BMP280;25735;48.122;11.422;2022-12-07T03:02:23;95134.75;;;2.84
40045;BMP280;25735;48.122;11.422;2022-12-07T03:05:21;95135.22;;;2.95
40045;BMP280;25735;48.122;11.422;2022-12-07T03:07:51;95135.88;;;2.99
40045;BMP280;25735;48.122;11.422;2022-12-07T03:10:24;95129.97;;;3.04
40045;BMP280;25735;48.122;11.422;2022-12-07T03:18:16;95131.47;;;2.92
40045;BMP280;25735;48.122;11.422;2022-12-07T03:20:44;95133.06;;;2.90
40045;BMP280;25735;48.122;11.422;2022-12-07T03:23:12;95130.38;;;2.90
40045;BMP280;25735;48.122;11.422;2022-12-07T03:25:44;95136.19;;;3.01
40045;BMP280;25735;48.122;11.422;2022-12-07T03:28:13;95132.44;;;3.10
40045;BMP280;25735;48.122;11.422;2022-12-07T03:33:31;95130.16;;;2.84
40045;BMP280;25735;48.122;11.422;2022-12-07T03:38:37;95132.94;;;2.81
40045;BMP280;25735;48.122;11.422;2022-12-07T03:41:09;95132.22;;;2.93
40045;BMP280;25735;48.122;11.422;2022-12-07T03:43:36;95130.50;;;3.11
40045;BMP280;25735;48.122;11.422;2022-12-07T03:46:20;95126.19;;;3.01
40045;BMP280;25735;48.122;11.422;2022-12-07T03:49:14;95129.22;;;3.03
40045;BMP280;25735;48.122;11.422;2022-12-07T03:51:49;95119.84;;;2.95
40045;BMP280;25735;48.122;11.422;2022-12-07T03:54:23;95117.59;;;2.94
40045;BMP280;25735;48.122;11.422;2022-12-07T03:56:50;95123.31;;;2.96
40045;BMP280;25735;48.122;11.422;2022-12-07T03:59:16;95114.25;;;2.78
40045;BMP280;25735;48.122;11.422;2022-12-07T04:01:43;95123.06;;;2.78
40045;BMP280;25735;48.122;11.422;2022-12-07T04:04:09;95127.16;;;2.82
40045;BMP280;25735;48.122;11.422;2022-12-07T04:06:34;95113.75;;;2.95
40045;BMP280;25735;48.122;11.422;2022-12-07T04:08:59;95121.34;;;2.84
40045;BMP280;25735;48.122;11.422;2022-12-07T04:11:24;95120.16;;;2.85
40045;BMP280;25735;48.122;11.422;2022-12-07T04:13:50;95109.88;;;2.83
40045;BMP280;25735;48.122;11.422;2022-12-07T04:16:33;95116.84;;;2.93
40045;BMP280;25735;48.122;11.422;2022-12-07T04:18:59;95126.31;;;2.98
40045;BMP280;25735;48.122;11.422;2022-12-07T04:21:24;95126.00;;;2.96
40045;BMP280;25735;48.122;11.422;2022-12-07T04:23:49;95126.06;;;2.80
40045;BMP280;25735;48.122;11.422;2022-12-07T04:26:14;95130.69;;;2.92
40045;BMP280;25735;48.122;11.422;2022-12-07T04:28:40;95121.16;;;2.91
40045;BMP280;25735;48.122;11.422;2022-12-07T04:31:05;95125.31;;;2.92
40045;BMP280;25735;48.122;11.422;2022-12-07T04:33:30;95131.94;;;2.75
40045;BMP280;25735;48.122;11.422;2022-12-07T04:35:55;95121.66;;;2.74
40045;BMP280;25735;48.122;11.422;2022-12-07T04:38:21;95133.97;;;2.71
40045;BMP280;25735;48.122;11.422;2022-12-07T04:40:46;95121.72;;;2.58
40045;BMP280;25735;48.122;11.422;2022-12-07T04:43:11;95111.41;;;2.56
40045;BMP280;25735;48.122;11.422;2022-12-07T04:45:36;95127.91;;;2.55
40045;BMP280;25735;48.122;11.422;2022-12-07T04:48:02;95128.56;;;2.59
40045;BMP280;25735;48.122;11.422;2022-12-07T04:50:27;95135.63;;;2.53
40045;BMP280;25735;48.122;11.422;2022-12-07T04:52:52;95127.38;;;2.48
40045;BMP280;25735;48.122;11.422;2022-12-07T04:55:17;95125.19;;;2.43
40045;BMP280;25735;48.122;11.422;2022-12-07T04:57:43;95123.94;;;2.47
40045;BMP280;25735;48.122;11.422;2022-12-07T05:00:08;95126.22;;;2.33
40045;BMP280;25735;48.122;11.422;2022-12-07T05:02:34;95117.69;;;2.38
40045;BMP280;25735;48.122;11.422;2022-12-07T05:04:59;95128.22;;;2.45
40045;BMP280;25735;48.122;11.422;2022-12-07T05:07:24;95128.13;;;2.48
40045;BMP280;25735;48.122;11.422;2022-12-07T05:09:49;95126.72;;;2.44
40045;BMP280;25735;48.122;11.422;2022-12-07T05:12:15;95125.47;;;2.60
40045;BMP280;25735;48.122;11.422;2022-12-07T05:14:40;95132.78;;;2.60
40045;BMP280;25735;48.122;11.422;2022-12-07T05:17:05;95128.66;;;2.55
40045;BMP280;25735;48.122;11.422;2022-12-07T05:19:30;95139.41;;;2.55
40045;BMP280;25735;48.122;11.422;2022-12-07T05:21:56;95129.09;;;2.54
40045;BMP280;25735;48.122;11.422;2022-12-07T05:24:21;95118.03;;;2.52
40045;BMP280;25735;48.122;11.422;2022-12-07T05:26:46;95124.44;;;2.42
40045;BMP280;25735;48.122;11.422;2022-12-07T05:29:16;95132.09;;;2.56
40045;BMP280;25735;48.122;11.422;2022-12-07T05:31:42;95131.34;;;2.55
40045;BMP280;25735;48.122;11.422;2022-12-07T05:34:08;95118.28;;;2.57
40045;BMP280;25735;48.122;11.422;2022-12-07T05:36:34;95120.06;;;2.48
40045;BMP280;25735;48.122;11.422;2022-12-07T05:38:59;95137.69;;;2.33
40045;BMP280;25735;48.122;11.422;2022-12-07T05:41:24;95128.50;;;2.34
40045;BMP280;25735;48.122;11.422;2022-12-07T05:44:08;95126.97;;;2.33
40045;BMP280;25735;48.122;11.422;2022-12-07T05:46:34;95118.63;;;2.31
40045;BMP280;25735;48.122;11.422;2022-12-07T05:48:59;95133.13;;;2.34
40045;BMP280;25735;48.122;11.422;2022-12-07T05:51:25;95131.78;;;2.26
40045;BMP280;25735;48.122;11.422;2022-12-07T05:53:50;95125.19;;;2.43
40045;BMP280;25735;48.122;11.422;2022-12-07T05:56:15;95129.25;;;2.35
40045;BMP280;25735;48.122;11.422;2022-12-07T05:58:40;95124.25;;;2.21
40045;BMP280;25735;48.122;11.422;2022-12-07T06:01:25;95132.97;;;2.25
40045;BMP280;25735;48.122;11.422;2022-12-07T06:03:50;95127.41;;;2.32
40045;BMP280;25735;48.122;11.422;2022-12-07T06:06:15;95127.75;;;2.34
40045;BMP280;25735;48.122;11.422;2022-12-07T06:08:41;95140.81;;;2.32
40045;BMP280;25735;48.122;11.422;2022-12-07T06:11:06;95128.97;;;2.45
40045;BMP280;25735;48.122;11.422;2022-12-07T06:13:50;95126.88;;;2.37
40045;BMP280;25735;48.122;11.422;2022-12-07T06:16:15;95134.81;;;2.28
40045;BMP280;25735;48.122;11.422;2022-12-07T06:18:40;95133.06;;;2.22
40045;BMP280;25735;48.122;11.422;2022-12-07T06:21:05;95137.22;;;2.23
40045;BMP280;25735;48.122;11.422;2022-12-07T06:23:31;95133.72;;;2.25
40045;BMP280;25735;48.122;11.422;2022-12-07T06:25:56;95137.53;;;2.40
40045;BMP280;25735;48.122;11.422;2022-12-07T06:28:21;95132.44;;;2.30
40045;BMP280;25735;48.122;11.422;2022-12-07T06:30:46;95135.59;;;2.41
40045;BMP280;25735;48.122;11.422;2022-12-07T06:33:12;95132.94;;;2.41
40045;BMP280;25735;48.122;11.422;2022-12-07T06:35:37;95136.94;;;2.33
40045;BMP280;25735;48.122;11.422;2022-12-07T06:38:02;95150.13;;;2.27
40045;BMP280;25735;48.122;11.422;2022-12-07T06:40:27;95145.19;;;2.26
40045;BMP280;25735;48.122;11.422;2022-12-07T06:42:53;95146.22;;;2.16
40045;BMP280;25735;48.122;11.422;2022-12-07T06:45:18;95144.19;;;2.20
40045;BMP280;25735;48.122;11.422;2022-12-07T06:47:43;95144.25;;;2.32
40045;BMP280;25735;48.122;11.422;2022-12-07T06:50:09;95137.69;;;2.33
40045;BMP280;25735;48.122;11.422;2022-12-07T06:52:34;95147.22;;;2.22
40045;BMP280;25735;48.122;11.422;2022-12-07T06:54:59;95148.34;;;2.37
40045;BMP280;25735;48.122;11.422;2022-12-07T06:57:25;95154.25;;;2.16
40045;BMP280;25735;48.122;11.422;2022-12-07T06:59:50;95154.34;;;2.13
40045;BMP280;25735;48.122;11.422;2022-12-07T07:02:16;95160.28;;;2.20
40045;BMP280;25735;48.122;11.422;2022-12-07T07:04:41;95153.31;;;2.23
40045;BMP280;25735;48.122;11.422;2022-12-07T07:07:07;95159.13;;;2.21
40045;BMP280;25735;48.122;11.422;2022-12-07T07:09:32;95163.66;;;2.08
40045;BMP280;25735;48.122;11.422;2022-12-07T07:11:57;95148.88;;;2.16
40045;BMP280;25735;48.122;11.422;2022-12-07T07:14:22;95156.69;;;2.11
40045;BMP280;25735;48.122;11.422;2022-12-07T07:16:47;95161.19;;;2.14
40045;BMP280;25735;48.122;11.422;2022-12-07T07:19:13;95163.66;;;2.08
40045;BMP280;25735;48.122;11.422;2022-12-07T07:21:38;95155.53;;;2.12
40045;BMP280;25735;48.122;11.422;2022-12-07T07:24:03;95158.13;;;2.15
40045;BMP280;25735;48.122;11.422;2022-12-07T07:26:29;95158.69;;;2.07
40045;BMP280;25735;48.122;11.422;2022-12-07T07:28:55;95170.50;;;2.09
40045;BMP280;25735;48.122;11.422;2022-12-07T07:31:20;95171.00;;;2.20
40045;BMP280;25735;48.122;11.422;2022-12-07T07:33:46;95163.56;;;2.12
40045;BMP280;25735;48.122;11.422;2022-12-07T07:36:12;95166.81;;;2.19
40045;BMP280;25735;48.122;11.422;2022-12-07T07:38:37;95171.81;;;2.17
40045;BMP280;25735;48.122;11.422;2022-12-07T07:41:02;95176.13;;;2.15
40045;BMP280;25735;48.122;11.422;2022-12-07T07:43:27;95167.81;;;2.25
40045;BMP280;25735;48.122;11.422;2022-12-07T07:45:53;95173.75;;;2.32
40045;BMP280;25735;48.122;11.422;2022-12-07T07:48:18;95177.19;;;2.17
40045;BMP280;25735;48.122;11.422;2022-12-07T07:50:43;95178.84;;;2.27
40045;BMP280;25735;48.122;11.422;2022-12-07T07:53:08;95172.91;;;2.20
40045;BMP280;25735;48.122;11.422;2022-12-07T07:55:34;95169.41;;;2.23
40045;BMP280;25735;48.122;11.422;2022-12-07T07:57:59;95181.53;;;2.27
40045;BMP280;25735;48.122;11.422;2022-12-07T08:00:24;95177.16;;;2.33
40045;BMP280;25735;48.122;11.422;2022-12-07T08:02:50;95169.88;;;2.33
40045;BMP280;25735;48.122;11.422;2022-12-07T08:05:15;95179.00;;;2.36
40045;BMP280;25735;48.122;11.422;2022-12-07T08:07:41;95182.25;;;2.43
40045;BMP280;25735;48.122;11.422;2022-12-07T08:10:07;95187.63;;;2.43
40045;BMP280;25735;48.122;11.422;2022-12-07T08:12:35;95183.44;;;2.42
40045;BMP280;25735;48.122;11.422;2022-12-07T08:15:01;95170.56;;;2.37
40045;BMP280;25735;48.122;11.422;2022-12-07T08:17:26;95172.25;;;2.31
40045;BMP280;25735;48.122;11.422;2022-12-07T08:19:52;95167.53;;;2.35
40045;BMP280;25735;48.122;11.422;2022-12-07T08:22:17;95175.16;;;2.37
40045;BMP280;25735;48.122;11.422;2022-12-07T08:24:42;95168.47;;;2.29
40045;BMP280;25735;48.122;11.422;2022-12-07T08:27:07;95180.94;;;2.35
40045;BMP280;25735;48.122;11.422;2022-12-07T08:29:33;95182.88;;;2.35
40045;BMP280;25735;48.122;11.422;2022-12-07T08:31:58;95184.06;;;2.62
40045;BMP280;25735;48.122;11.422;2022-12-07T08:34:25;95175.00;;;2.56
40045;BMP280;25735;48.122;11.422;2022-12-07T08:36:50;95181.81;;;2.60
40045;BMP280;25735;48.122;11.422;2022-12-07T08:39:16;95179.13;;;2.60
40045;BMP280;25735;48.122;11.422;2022-12-07T08:41:41;95178.63;;;2.50
40045;BMP280;25735;48.122;11.422;2022-12-07T08:44:06;95173.13;;;2.56
40045;BMP280;25735;48.122;11.422;2022-12-07T08:46:55;95166.81;;;2.75
40045;BMP280;25735;48.122;11.422;2022-12-07T08:49:27;95169.56;;;2.59
40045;BMP280;25735;48.122;11.422;2022-12-07T08:51:54;95175.72;;;2.72
40045;BMP280;25735;48.122;11.422;2022-12-07T08:54:20;95177.69;;;2.84
40045;BMP280;25735;48.122;11.422;2022-12-07T08:56:47;95175.72;;;2.72
40045;BMP280;25735;48.122;11.422;2022-12-07T08:59:14;95185.41;;;2.82
40045;BMP280;25735;48.122;11.422;2022-12-07T09:01:40;95181.38;;;2.90
40045;BMP280;25735;48.122;11.422;2022-12-07T09:04:06;95182.03;;;2.94
40045;BMP280;25735;48.122;11.422;2022-12-07T09:06:31;95180.88;;;3.07
40045;BMP280;25735;48.122;11.422;2022-12-07T09:08:58;95177.44;;;3.07
40045;BMP280;25735;48.122;11.422;2022-12-07T09:11:24;95171.72;;;2.92
40045;BMP280;25735;48.122;11.422;2022-12-07T09:13:49;95174.50;;;2.89
40045;BMP280;25735;48.122;11.422;2022-12-07T09:16:14;95170.63;;;2.90
40045;BMP280;25735;48.122;11.422;2022-12-07T09:18:39;95162.53;;;3.06
40045;BMP280;25735;48.122;11.422;2022-12-07T09:21:05;95157.16;;;3.18
40045;BMP280;25735;48.122;11.422;2022-12-07T09:23:30;95169.19;;;3.13
40045;BMP280;25735;48.122;11.422;2022-12-07T09:25:59;95171.34;;;3.18
40045;BMP280;25735;48.122;11.422;2022-12-07T09:28:25;95167.13;;;3.17
40045;BMP280;25735;48.122;11.422;2022-12-07T09:30:51;95174.03;;;3.31
40045;BMP280;25735;48.122;11.422;2022-12-07T09:33:16;95164.06;;;3.31
40045;BMP280;25735;48.122;11.422;2022-12-07T09:35:46;95182.66;;;3.63
40045;BMP280;25735;48.122;11.422;2022-12-07T09:38:11;95176.13;;;3.64
40045;BMP280;25735;48.122;11.422;2022-12-07T09:40:37;95166.84;;;3.64
40045;BMP280;25735;48.122;11.422;2022-12-07T09:43:02;95165.03;;;3.74
40045;BMP280;25735;48.122;11.422;2022-12-07T09:45:34;95172.88;;;3.68
40045;BMP280;25735;48.122;11.422;2022-12-07T09:48:00;95181.28;;;3.70
40045;BMP280;25735;48.122;11.422;2022-12-07T09:50:28;95173.28;;;3.79
40045;BMP280;25735;48.122;11.422;2022-12-07T09:53:07;95155.25;;;3.80
40045;BMP280;25735;48.122;11.422;2022-12-07T09:55:33;95153.88;;;4.09
40045;BMP280;25735;48.122;11.422;2022-12-07T09:57:59;95156.56;;;4.09
40045;BMP280;25735;48.122;11.422;2022-12-07T10:00:25;95157.34;;;4.09
40045;BMP280;25735;48.122;11.422;2022-12-07T10:03:01;95153.34;;;4.14
40045;BMP280;25735;48.122;11.422;2022-12-07T10:05:42;95150.56;;;4.05
40045;BMP280;25735;48.122;11.422;2022-12-07T10:08:12;95144.66;;;4.10
40045;BMP280;25735;48.122;11.422;2022-12-07T10:10:38;95135.56;;;4.28
40045;BMP280;25735;48.122;11.422;2022-12-07T10:13:12;95150.41;;;4.33
40045;BMP280;25735;48.122;11.422;2022-12-07T10:18:17;95144.81;;;4.27
40045;BMP280;25735;48.122;11.422;2022-12-07T10:20:44;95139.47;;;4.48
40045;BMP280;25735;48.122;11.422;2022-12-07T10:23:17;95144.34;;;4.41
40045;BMP280;25735;48.122;11.422;2022-12-07T10:25:44;95146.47;;;4.46
40045;BMP280;25735;48.122;11.422;2022-12-07T10:28:16;95136.16;;;4.66
40045;BMP280;25735;48.122;11.422;2022-12-07T10:31:15;95145.50;;;4.52
40045;BMP280;25735;48.122;11.422;2022-12-07T10:39:32;95146.69;;;4.73
40045;BMP280;25735;48.122;11.422;2022-12-07T10:44:25;95128.59;;;4.94
40045;BMP280;25735;48.122;11.422;2022-12-07T10:47:20;95131.34;;;4.82
40045;BMP280;25735;48.122;11.422;2022-12-07T10:58:32;95109.91;;;5.60
40045;BMP280;25735;48.122;11.422;2022-12-07T11:07:02;95102.53;;;5.42
40045;BMP280;25735;48.122;11.422;2022-12-07T11:12:39;95102.81;;;5.44
40045;BMP280;25735;48.122;11.422;2022-12-07T11:15:20;95102.41;;;5.85
40045;BMP280;25735;48.122;11.422;2022-12-07T11:18:07;95098.09;;;5.27
40045;BMP280;25735;48.122;11.422;2022-12-07T11:20:44;95104.19;;;5.19
40045;BMP280;25735;48.122;11.422;2022-12-07T11:26:05;95100.41;;;5.07
40045;BMP280;25735;48.122;11.422;2022-12-07T11:34:13;95084.47;;;6.70
40045;BMP280;25735;48.122;11.422;2022-12-07T11:36:48;95084.47;;;6.35
40045;BMP280;25735;48.122;11.422;2022-12-07T11:39:35;95080.72;;;6.59
40045;BMP280;25735;48.122;11.422;2022-12-07T11:42:18;95079.69;;;6.21
40045;BMP280;25735;48.122;11.422;2022-12-07T11:47:47;95080.53;;;6.00
40045;BMP280;25735;48.122;11.422;2022-12-07T11:55:54;95066.53;;;5.66
40045;BMP280;25735;48.122;11.422;2022-12-07T12:01:07;95054.97;;;5.57
40045;BMP280;25735;48.122;11.422;2022-12-07T12:03:36;95054.78;;;5.99
40045;BMP280;25735;48.122;11.422;2022-12-07T12:06:03;95048.19;;;6.00
40045;BMP280;25735;48.122;11.422;2022-12-07T12:08:33;95050.91;;;6.18
40045;BMP280;25735;48.122;11.422;2022-12-07T12:14:09;95044.41;;;5.80
40045;BMP280;25735;48.122;11.422;2022-12-07T12:16:57;95039.22;;;6.30
40045;BMP280;25735;48.122;11.422;2022-12-07T12:19:57;95040.88;;;6.27
40045;BMP280;25735;48.122;11.422;2022-12-07T12:22:32;95033.06;;;6.03
40045;BMP280;25735;48.122;11.422;2022-12-07T12:24:59;95028.59;;;5.52
40045;BMP280;25735;48.122;11.422;2022-12-07T12:27:27;95034.28;;;5.45
40045;BMP280;25735;48.122;11.422;2022-12-07T12:29:57;95032.72;;;5.27
40045;BMP280;25735;48.122;11.422;2022-12-07T12:35:21;95036.00;;;4.92
40045;BMP280;25735;48.122;11.422;2022-12-07T12:37:48;95033.50;;;4.97
40045;BMP280;25735;48.122;11.422;2022-12-07T12:42:47;95034.75;;;5.14
40045;BMP280;25735;48.122;11.422;2022-12-07T12:45:33;95038.25;;;5.23
40045;BMP280;25735;48.122;11.422;2022-12-07T12:48:30;95028.47;;;5.56
40045;BMP280;25735;48.122;11.422;2022-12-07T12:51:36;95025.81;;;5.26
40045;BMP280;25735;48.122;11.422;2022-12-07T12:54:12;95026.19;;;5.54
40045;BMP280;25735;48.122;11.422;2022-12-07T12:56:58;95027.69;;;5.46
40045;BMP280;25735;48.122;11.422;2022-12-07T12:59:29;95022.94;;;5.68
40045;BMP280;25735;48.122;11.422;2022-12-07T13:05:00;95015.50;;;5.72
40045;BMP280;25735;48.122;11.422;2022-12-07T13:21:01;95018.50;;;6.45
40045;BMP280;25735;48.122;11.422;2022-12-07T13:26:22;95000.53;;;6.15
40045;BMP280;25735;48.122;11.422;2022-12-07T13:29:06;95003.25;;;5.89
40045;BMP280;25735;48.122;11.422;2022-12-07T13:31:55;95004.06;;;5.68
40045;BMP280;25735;48.122;11.422;2022-12-07T13:37:28;95013.25;;;5.32
40045;BMP280;25735;48.122;11.422;2022-12-07T13:39:56;95011.47;;;5.29
40045;BMP280;25735;48.122;11.422;2022-12-07T13:44:51;95012.41;;;5.43
40045;BMP280;25735;48.122;11.422;2022-12-07T13:47:30;95003.63;;;7.16
40045;BMP280;25735;48.122;11.422;2022-12-07T13:49:56;94992.94;;;8.23
40045;BMP280;25735;48.122;11.422;2022-12-07T13:52:25;94989.28;;;9.06
40045;BMP280;25735;48.122;11.422;2022-12-07T13:55:14;94995.94;;;8.25
40045;BMP280;25735;48.122;11.422;2022-12-07T13:57:40;94992.94;;;8.23
40045;BMP280;25735;48.122;11.422;2022-12-07T14:00:15;94990.66;;;7.29
40045;BMP280;25735;48.122;11.422;2022-12-07T14:03:00;94999.66;;;6.09
40045;BMP280;25735;48.122;11.422;2022-12-07T14:05:27;95005.34;;;5.85
40045;BMP280;25735;48.122;11.422;2022-12-07T14:08:04;94988.19;;;5.61
40045;BMP280;25735;48.122;11.422;2022-12-07T14:10:40;94985.47;;;5.43
40045;BMP280;25735;48.122;11.422;2022-12-07T14:13:28;94985.34;;;5.64
40045;BMP280;25735;48.122;11.422;2022-12-07T14:15:55;94994.06;;;5.68
40045;BMP280;25735;48.122;11.422;2022-12-07T14:18:28;94984.06;;;5.95
40045;BMP280;25735;48.122;11.422;2022-12-07T14:21:18;94987.03;;;5.71
40045;BMP280;25735;48.122;11.422;2022-12-07T14:23:44;94980.69;;;5.47
40045;BMP280;25735;48.122;11.422;2022-12-07T14:26:19;94995.94;;;5.41
40045;BMP280;25735;48.122;11.422;2022-12-07T14:28:46;94978.56;;;5.33
40045;BMP280;25735;48.122;11.422;2022-12-07T14:31:16;94989.69;;;5.53
40045;BMP280;25735;48.122;11.422;2022-12-07T14:33:42;94986.81;;;5.39
40045;BMP280;25735;48.122;11.422;2022-12-07T14:36:12;94980.84;;;5.53
40045;BMP280;25735;48.122;11.422;2022-12-07T14:38:38;94984.88;;;5.57
40045;BMP280;25735;48.122;11.422;2022-12-07T14:41:04;94995.66;;;5.39
40045;BMP280;25735;48.122;11.422;2022-12-07T14:43:50;94995.16;;;4.84
40045;BMP280;25735;48.122;11.422;2022-12-07T14:46:15;94989.38;;;4.74
40045;BMP280;25735;48.122;11.422;2022-12-07T14:48:40;94996.94;;;4.57
40045;BMP280;25735;48.122;11.422;2022-12-07T14:51:08;94985.31;;;4.39
40045;BMP280;25735;48.122;11.422;2022-12-07T14:53:40;94996.97;;;4.36
40045;BMP280;25735;48.122;11.422;2022-12-07T14:56:07;94982.25;;;4.28
40045;BMP280;25735;48.122;11.422;2022-12-07T14:58:33;94992.09;;;4.22
40045;BMP280;25735;48.122;11.422;2022-12-07T15:00:59;94990.09;;;4.14
40045;BMP280;25735;48.122;11.422;2022-12-07T15:03:24;94990.72;;;3.97
40045;BMP280;25735;48.122;11.422;2022-12-07T15:05:49;94991.38;;;3.89
40045;BMP280;25735;48.122;11.422;2022-12-07T15:08:14;94990.53;;;3.79
40045;BMP280;25735;48.122;11.422;2022-12-07T15:10:40;94989.53;;;3.64
40045;BMP280;25735;48.122;11.422;2022-12-07T15:13:05;94989.13;;;3.54
40045;BMP280;25735;48.122;11.422;2022-12-07T15:15:51;94981.84;;;3.54
40045;BMP280;25735;48.122;11.422;2022-12-07T15:18:17;94988.59;;;3.46
40045;BMP280;25735;48.122;11.422;2022-12-07T15:20:43;94987.53;;;3.44
40045;BMP280;25735;48.122;11.422;2022-12-07T15:23:09;94985.63;;;3.44
40045;BMP280;25735;48.122;11.422;2022-12-07T15:25:35;94998.09;;;3.38
40045;BMP280;25735;48.122;11.422;2022-12-07T15:28:00;94981.75;;;3.33
40045;BMP280;25735;48.122;11.422;2022-12-07T15:30:25;94987.91;;;3.21
40045;BMP280;25735;48.122;11.422;2022-12-07T15:32:52;94984.81;;;3.10
40045;BMP280;25735;48.122;11.422;2022-12-07T15:35:17;94988.56;;;3.01
40045;BMP280;25735;48.122;11.422;2022-12-07T15:37:43;94984.63;;;2.93
40045;BMP280;25735;48.122;11.422;2022-12-07T15:40:09;94993.63;;;2.62
40045;BMP280;25735;48.122;11.422;2022-12-07T15:42:35;94980.28;;;2.46
40045;BMP280;25735;48.122;11.422;2022-12-07T15:45:01;94999.59;;;2.41
40045;BMP280;25735;48.122;11.422;2022-12-07T15:47:37;94976.09;;;2.33
40045;BMP280;25735;48.122;11.422;2022-12-07T15:50:04;94996.09;;;2.16
40045;BMP280;25735;48.122;11.422;2022-12-07T15:52:30;94990.88;;;2.25
40045;BMP280;25735;48.122;11.422;2022-12-07T15:54:56;94988.06;;;2.16
40045;BMP280;25735;48.122;11.422;2022-12-07T15:57:22;94983.88;;;2.15
40045;BMP280;25735;48.122;11.422;2022-12-07T15:59:47;94988.59;;;2.11
40045;BMP280;25735;48.122;11.422;2022-12-07T16:02:12;94979.97;;;1.92
40045;BMP280;25735;48.122;11.422;2022-12-07T16:04:38;94975.66;;;1.94